Hwange National Park, Zimbabwe
Current Conditions -  °F | °C
As of 5:00 PM on Friday 24 Oct 2014 (Local Time) from FBKE Reporting Station
Broken Clouds Broken Clouds  
Wind Chill: 97°   Ceiling: 3000
Heat Index: 97°   Visibility: 6mi
Dew Point: 32°   Wind: 7mph
Humidity: 10%   Direction: 290°WNW
Pressure: 29.85"   Gusts: NA
Location:  18.63°S, 27.03°E
Report Text: FBKE 241500Z 29006KT 250V330 9999 BKN030 36/00 Q1011
Loading
Personal Weather Stations






























Interactive Weather Map
Tropical Storm Tracking
New forecast layout! Learn more

10-Day Weather Forecast

Advertisements
Track Severe Weather on mobile